KICT/ICT METAR and TAF weather

Enter ICAO airport designator
Station Type Date Time Source
KICT METAR 2020/09/22 15:53 UTC NOAA

KICT 221553Z 00000KT 10SM OVC007 18/17 A3016 RMK AO2 CIG 005V010 SLP205 T01830172


Station Type Date Time Source
KICT Decoded METAR 2020/09/22 15:53 UTC NOAA

WICHITA MID-CONTINENT AIRPORT , KS, United States (KICT) 37-39N 97-26W 408M
Sep 22, 2020 - 11:53 AM EDT / 2020.09.22 1553 UTC
Wind: Calm:0
Visibility: 10 mile(s):0
Sky conditions: overcast
Temperature: 64.9 F (18.3 C)
Dew Point: 63.0 F (17.2 C)
Relative Humidity: 93%
Pressure (altimeter): 30.16 in. Hg (1021 hPa)
ob: KICT 221553Z 00000KT 10SM OVC007 18/17 A3016 RMK AO2 CIG 005V010 SLP205 T01830172
cycle: 16

Station Type Date Time Source
KICT TAF 2020/09/22 15:16 UTC NOAA

TAF
AMD KICT 221514Z 2215/2312 VRB05KT 1SM -DZ BR BKN008
FM221700 15008KT P6SM BKN012
FM221900 15010KT P6SM BKN025
FM230100 15008KT P6SM OVC016
FM230700 16007KT P6SM OVC008

Example: see airport list